Cristian Deville ancora sugli scudi nello Slalom di chiusura della quattro giorni di gare FIS sulle nevi della Val d’Aosta.

Il finanziere trentino si è imposto a Gressoney con il tempo di 1’38″34 davanti agli spagnoli Alejandro Puente Tasias e Juan Del Campo.

La gara era valevole per il Gran Premio Italia Giovani (nati fra il 1996 e 2000 che non fanno parte di squadre nazionali),  che ha visto il successo di Francesco Gori (quinto al traguardo) su Paolo Padello (settimo) e Matthias Steinmair (ottavo).

Nella foto: Cristian Deville.

Guarda i risultati dello Slalom di ieri, vinto anch’esso da Deville:

La classifica di oggi:

Rank Bib FIS Code Name Year Nation Run 1 Run 2 Total Time Diff. FIS Points
 1  4  291145 DEVILLE Cristian  1981  ITA   48.59  49.75  1:38.34     9.00
 2  11  491876 PUENTE TASIAS Alejandro  1994  ESP   50.25  50.18  1:40.43  +2.09  24.30
 3  1  491853 DEL CAMPO Juan  1994  ESP   50.38  50.75  1:41.13  +2.79  29.43
 4  15  690382 COLOMBI Nicolo  1991  ITA   50.66  50.77  1:41.43  +3.09  31.62
 5  7  6292401 GORI Francesco  1997  ITA   51.83  51.07  1:42.90  +4.56  42.39
 6  2  30266 GASTALDI Sebastiano  1991  ARG   51.03  52.99  1:44.02  +5.68  50.59
 7  22  6292448 PADELLO Paolo  1997  ITA   52.33  52.00  1:44.33  +5.99  52.86
 8  34  6292474 STEINMAIR Matthias  1997  ITA   52.25  52.37  1:44.62  +6.28  54.98
 9  31  6292776 GENTILLI Francesco  1998  ITA   54.16  50.83  1:44.99  +6.65  57.69
 10  45  6293198 PERATHONER Pauli  1999  ITA   53.18  51.83  1:45.01  +6.67  57.83
 10  33  6292410 HELL Damian  1997  ITA   53.50  51.51  1:45.01  +6.67  57.83
 12  18  6292508 VIETTI Federico  1997  ITA   53.54  51.68  1:45.22  +6.88  59.37
 13  50  6292916 ALLEMAND Daniel  1998  ITA   53.69  51.67  1:45.36  +7.02  60.40
 14  21  6292895 CANCLINI Fabiano  1998  ITA   52.97  52.70  1:45.67  +7.33  62.67
 15  30  6292676 BICOCCHI Matteo  1997  ITA   53.83  52.18  1:46.01  +7.67  65.16
 16  47  6293272 ZAZZARO Giovanni  1999  ITA   53.51  52.56  1:46.07  +7.73  65.60
 17  44  6292582 POMPEI Giovanni  1997  ITA   53.89  52.30  1:46.19  +7.85  66.47
 18  53  6293260 MAZZOCCO Nicolo  1999  ITA   54.86  51.68  1:46.54  +8.20  69.04
 19  37  6292795 PRADAL Matteo  1998  ITA   53.66  53.16  1:46.82  +8.48  71.09
 20  48  6292953 NARDELLI Martin  1998  ITA   55.02  52.18  1:47.20  +8.86  73.87
 21  20  20421 SALVADORES Xavier  1996  AND   52.66  54.55  1:47.21  +8.87  73.94
 22  54  6300407 KATO Hajime  1998  JPN   56.34  53.97  1:50.31  +11.97  96.64
 23  74  221356 BROWN Ryan  1999  GBR   56.14  55.02  1:51.16  +12.82  102.86
 24  41  6293302 CORDONE Stefano  1999  ITA   56.68  54.74  1:51.42  +13.08  104.77
 25  64  6293454 MILANESI Alessandro Martino  2000  ITA   56.80  55.13  1:51.93  +13.59  108.50
 26  56  6292974 SALINI Alessandro  1998  ITA   56.71  56.02  1:52.73  +14.39  114.36
 27  68  6293170 ANGELINI Luca  1999  ITA   58.47  54.91  1:53.38  +15.04  119.12
 28  59  481986 LOMOVSKIKH Matvei  1999  RUS   57.45  56.64  1:54.09  +15.75  124.31
 29  77  6293131 GRIFFANI Nicholas  1999  ITA   58.12  57.09  1:55.21  +16.87  132.51
 30  71  6293257 CHIARAVALLI Luca  1999  ITA   57.88  58.22  1:56.10  +17.76  139.03
 31  81  6293431 GENS Julien  2000  ITA   59.93  58.68  1:58.61  +20.27  157.41
 32  76  6293591 PALLAIS Federico  2000  ITA   59.87  59.16  1:59.03  +20.69  160.48
 33  79  6293611 CARREL Thierry  2000  ITA   1:02.50  57.71  2:00.21  +21.87  169.12
 34  78  6293453 TORNO Francesco Maria  2000  ITA   1:06.56  56.94  2:03.50  +25.16  193.21

 

Commenta su Facebook

Commenti

LASCIA UN COMMENTO